Аэропорт: Шереметьево. Москва

ICAO: UUEE

METAR:
2019-09-21 16:00:00
UUEE 211600Z 24007G12MPS CAVOK 08/M00 Q1009 R88/62D NOSIG
METAR:
2019-09-21 13:59:00
TAF UUEE 211359Z 2115/2215 22005MPS 9000 BKN011 TX08/2115Z TN04/2206Z FM212200 21005G11MPS 6000 -RA BKN003 OVC005 TEMPO 2123/2206 4000 -SHRA BKN011CB BECMG 2203/2206 30007G15MPS BECMG 2206/2210 BKN011